Time;durP1;ratioP1;P1;durP2;ratioP2;P2;SDS_P1;SDS_P2;PMS_P1;PMS_P2;Temp;Humidity;BMP_temperature;BMP_pressure;BME280_temperature;BME280_humidity;BME280_pressure;Samples;Min_cycle;Max_cycle;Signal;HPM_P1;HPM_P2
2021/09/11 00:00:16;;;;;;;10.43;4.55;;;486.80;1356.80;;;;;;5094389;28;20110;-72
2021/09/11 00:02:46;;;;;;;14.90;5.10;;;486.80;1356.80;;;;;;5094328;28;20024;-72
2021/09/11 00:05:12;;;;;;;16.15;5.50;;;486.80;1356.80;;;;;;5094827;28;20027;-67
2021/09/11 00:07:39;;;;;;;12.70;5.20;;;486.70;1356.80;;;;;;5089544;28;20059;-68
2021/09/11 00:10:06;;;;;;;6.55;4.10;;;486.70;1382.40;;;;;;5092561;28;20040;-67
2021/09/11 00:12:33;;;;;;;18.90;5.10;;;486.70;1382.40;;;;;;5093635;28;20028;-67
2021/09/11 00:14:59;;;;;;;13.20;5.28;;;486.60;1382.40;;;;;;5094576;28;20028;-71
2021/09/11 00:17:25;;;;;;;12.73;5.00;;;486.60;1382.40;;;;;;5093993;28;20397;-67
2021/09/11 00:19:50;;;;;;;6.90;4.68;;;486.60;1382.40;;;;;;5093379;28;20470;-73
2021/09/11 00:22:16;;;;;;;13.50;5.50;;;486.50;1408.00;;;;;;5094000;28;20077;-67
2021/09/11 00:24:42;;;;;;;17.67;5.53;;;486.50;1408.00;;;;;;5094328;28;20035;-67
2021/09/11 00:27:07;;;;;;;12.95;5.53;;;486.50;1408.00;;;;;;5094666;28;20486;-67
2021/09/11 00:29:37;;;;;;;11.88;4.75;;;486.50;1408.00;;;;;;5094420;28;20036;-67
2021/09/11 00:32:03;;;;;;;10.90;4.85;;;486.50;1433.60;;;;;;5094632;28;20039;-67
2021/09/11 00:34:29;;;;;;;17.25;5.43;;;486.50;1433.60;;;;;;5094404;28;20020;-67
2021/09/11 00:36:55;;;;;;;13.07;5.47;;;486.50;1433.60;;;;;;5094148;28;20027;-67
2021/09/11 00:39:23;;;;;;;10.57;5.30;;;486.40;1433.60;;;;;;5094322;28;20461;-67
2021/09/11 00:41:50;;;;;;;13.18;5.03;;;486.40;1433.60;;;;;;5094502;28;20031;-67
2021/09/11 00:44:15;;;;;;;10.07;5.90;;;486.40;1433.60;;;;;;5094154;28;20020;-67
2021/09/11 00:46:41;;;;;;;10.00;5.20;;;486.40;1433.60;;;;;;5094116;28;20020;-67
2021/09/11 00:49:07;;;;;;;15.95;5.22;;;486.40;1433.60;;;;;;5094096;28;20145;-67
2021/09/11 00:51:33;;;;;;;12.13;5.38;;;461.70;1459.20;;;;;;5094142;28;20032;-68
2021/09/11 00:53:59;;;;;;;12.52;4.88;;;461.70;1459.20;;;;;;5094030;28;20077;-67
2021/09/11 00:56:25;;;;;;;12.35;5.43;;;461.60;1484.80;;;;;;5094120;28;20355;-67
2021/09/11 00:58:51;;;;;;;12.45;5.05;;;461.60;1484.80;;;;;;5092550;28;20032;-67
2021/09/11 01:01:17;;;;;;;8.85;5.32;;;461.60;1484.80;;;;;;5093304;28;20028;-67
2021/09/11 01:03:43;;;;;;;17.17;5.38;;;461.60;1484.80;;;;;;5092647;28;20040;-67
2021/09/11 01:06:10;;;;;;;11.68;5.18;;;461.60;1484.80;;;;;;5093775;28;20036;-67
2021/09/11 01:08:40;;;;;;;11.15;5.40;;;461.50;1484.80;;;;;;5094056;28;20085;-68
2021/09/11 01:11:05;;;;;;;11.50;4.95;;;461.60;1484.80;;;;;;5093579;28;20075;-68
2021/09/11 01:13:33;;;;;;;14.93;5.57;;;461.50;1484.80;;;;;;5093747;28;20052;-67
2021/09/11 01:15:59;;;;;;;10.48;5.32;;;461.50;1484.80;;;;;;5093803;28;20024;-67
2021/09/11 01:18:26;;;;;;;12.80;6.05;;;461.50;1510.40;;;;;;5093873;28;20021;-67
2021/09/11 01:20:52;;;;;;;13.90;6.15;;;461.40;1484.80;;;;;;5093828;28;20067;-68
2021/09/11 01:23:19;;;;;;;9.45;5.90;;;461.50;1484.80;;;;;;5093676;28;20369;-67
2021/09/11 01:25:46;;;;;;;10.52;5.68;;;461.50;1484.80;;;;;;5094052;28;20050;-67
2021/09/11 01:28:11;;;;;;;11.65;5.13;;;461.50;1484.80;;;;;;5094128;28;20043;-67
2021/09/11 01:30:37;;;;;;;10.65;5.15;;;461.40;1484.80;;;;;;5093566;28;20462;-67
2021/09/11 01:33:03;;;;;;;11.73;4.97;;;461.40;1484.80;;;;;;5093677;28;20067;-67
2021/09/11 01:35:29;;;;;;;13.50;6.50;;;461.40;1484.80;;;;;;5093582;28;20024;-68
2021/09/11 01:37:54;;;;;;;18.67;6.15;;;461.40;1510.40;;;;;;5093638;28;20133;-67
2021/09/11 01:40:22;;;;;;;17.27;5.57;;;461.30;1510.40;;;;;;5092334;28;20036;-67
2021/09/11 01:42:48;;;;;;;18.85;6.63;;;461.40;1484.80;;;;;;5091993;28;20032;-67
2021/09/11 01:45:17;;;;;;;14.23;7.00;;;461.40;1484.80;;;;;;5093362;28;20031;-67
2021/09/11 01:47:43;;;;;;;15.65;5.50;;;461.30;1510.40;;;;;;5093498;28;20031;-67
2021/09/11 01:50:11;;;;;;;11.50;5.88;;;461.30;1510.40;;;;;;5093271;28;20504;-67
2021/09/11 01:52:37;;;;;;;11.75;5.00;;;461.20;1510.40;;;;;;5093578;28;20032;-68
2021/09/11 01:55:07;;;;;;;9.98;5.25;;;461.20;1510.40;;;;;;5093562;28;20177;-68
2021/09/11 01:57:42;;;;;;;12.35;5.13;;;461.20;1510.40;;;;;;5091873;28;20039;-68
2021/09/11 02:00:09;;;;;;;15.20;5.40;;;461.20;1510.40;;;;;;5093508;28;20016;-67
2021/09/11 02:02:35;;;;;;;11.63;5.05;;;461.20;1510.40;;;;;;5091801;28;20143;-67
2021/09/11 02:05:01;;;;;;;13.02;5.60;;;461.20;1536.00;;;;;;5093194;28;20043;-68
2021/09/11 02:07:26;;;;;;;18.20;5.95;;;461.10;1510.40;;;;;;5093308;28;20099;-67
2021/09/11 02:09:52;;;;;;;28.42;6.82;;;461.00;1536.00;;;;;;5093170;28;20036;-68
2021/09/11 02:12:18;;;;;;;25.10;6.40;;;461.00;1536.00;;;;;;5093035;28;20036;-68
2021/09/11 02:14:44;;;;;;;10.02;5.88;;;461.00;1536.00;;;;;;5093117;28;20423;-67
2021/09/11 02:17:09;;;;;;;11.73;6.05;;;461.00;1536.00;;;;;;5093048;28;20111;-68
2021/09/11 02:19:35;;;;;;;13.52;5.85;;;461.00;1536.00;;;;;;5093292;28;20020;-67
2021/09/11 02:22:03;;;;;;;13.23;5.75;;;461.00;1536.00;;;;;;5093093;28;20020;-67
2021/09/11 02:24:29;;;;;;;21.83;7.72;;;461.00;1536.00;;;;;;5092923;28;20020;-68
2021/09/11 02:26:56;;;;;;;20.23;8.00;;;461.00;1536.00;;;;;;5093257;28;20027;-68
2021/09/11 02:29:22;;;;;;;24.52;9.40;;;461.00;1561.60;;;;;;5092725;28;20024;-68
2021/09/11 02:31:48;;;;;;;19.75;10.27;;;460.90;1561.60;;;;;;5092878;28;20450;-68
2021/09/11 02:34:14;;;;;;;21.77;10.43;;;460.90;1561.60;;;;;;5093759;28;20028;-68
2021/09/11 02:36:40;;;;;;;28.20;14.52;;;460.90;1561.60;;;;;;5096541;28;20028;-68
2021/09/11 02:39:06;;;;;;;30.95;14.55;;;460.90;1561.60;;;;;;5096588;28;20031;-68
2021/09/11 02:41:33;;;;;;;18.98;9.82;;;460.80;1561.60;;;;;;5096768;28;20048;-68
2021/09/11 02:43:59;;;;;;;16.13;8.43;;;460.80;1561.60;;;;;;5096481;28;20012;-68
2021/09/11 02:46:24;;;;;;;14.68;6.32;;;460.80;1561.60;;;;;;5096514;28;20480;-68
2021/09/11 02:48:50;;;;;;;13.70;6.82;;;460.80;1561.60;;;;;;5096514;28;20035;-68
2021/09/11 02:51:16;;;;;;;11.32;6.70;;;460.80;1561.60;;;;;;5096224;28;20440;-68
2021/09/11 02:53:42;;;;;;;12.70;6.15;;;436.10;1536.00;;;;;;5094898;28;20032;-68
2021/09/11 02:56:07;;;;;;;12.35;6.18;;;460.80;1587.20;;;;;;5096378;28;20027;-68
2021/09/11 02:58:33;;;;;;;16.45;7.60;;;436.10;1561.60;;;;;;5095935;28;20028;-68
2021/09/11 03:00:59;;;;;;;19.08;9.68;;;436.10;1561.60;;;;;;5096053;28;20036;-68
2021/09/11 03:03:24;;;;;;;41.72;15.88;;;460.80;1587.20;;;;;;5096146;28;20027;-67
2021/09/11 03:05:50;;;;;;;39.72;16.25;;;460.80;1587.20;;;;;;5096059;28;20103;-67
2021/09/11 03:08:16;;;;;;;34.63;11.07;;;460.80;1561.60;;;;;;5094683;28;20081;-67
2021/09/11 03:10:41;;;;;;;21.05;7.95;;;436.10;1561.60;;;;;;5095312;28;20118;-71
2021/09/11 03:13:07;;;;;;;24.25;9.98;;;436.10;1561.60;;;;;;5095435;28;20073;-69
2021/09/11 03:15:33;;;;;;;19.10;7.25;;;436.00;1561.60;;;;;;5094479;28;20481;-67
2021/09/11 03:17:58;;;;;;;13.25;6.72;;;435.90;1561.60;;;;;;5093921;28;20043;-68
2021/09/11 03:20:24;;;;;;;13.40;6.13;;;436.00;1561.60;;;;;;5093894;28;20068;-71
2021/09/11 03:22:50;;;;;;;17.10;5.93;;;436.00;1561.60;;;;;;5095160;28;20020;-71
2021/09/11 03:25:16;;;;;;;13.10;6.10;;;436.00;1561.60;;;;;;5095317;28;20028;-67
2021/09/11 03:27:41;;;;;;;15.82;6.32;;;435.90;1561.60;;;;;;5095695;28;20032;-73
2021/09/11 03:30:08;;;;;;;12.27;6.10;;;435.90;1561.60;;;;;;5095042;28;20073;-68
2021/09/11 03:32:34;;;;;;;16.80;6.30;;;435.90;1536.00;;;;;;5094711;28;20039;-68
2021/09/11 03:35:00;;;;;;;13.98;6.55;;;435.90;1561.60;;;;;;5091719;28;20380;-72
2021/09/11 03:37:25;;;;;;;15.73;6.22;;;435.90;1536.00;;;;;;5095359;28;20097;-68
2021/09/11 03:39:51;;;;;;;28.52;10.93;;;435.90;1536.00;;;;;;5094481;28;20495;-72
2021/09/11 03:42:17;;;;;;;56.63;23.95;;;435.90;1536.00;;;;;;5095167;28;20036;-71
2021/09/11 03:44:42;;;;;;;90.18;34.85;;;435.90;1536.00;;;;;;5093821;28;20028;-69
2021/09/11 03:47:08;;;;;;;107.88;43.47;;;435.90;1536.00;;;;;;5092697;28;20500;-71
2021/09/11 03:49:34;;;;;;;96.45;40.83;;;435.90;1536.00;;;;;;5095380;28;20107;-67
2021/09/11 03:51:59;;;;;;;91.80;38.35;;;435.90;1536.00;;;;;;5094813;28;20085;-73
2021/09/11 03:54:25;;;;;;;93.68;37.15;;;435.80;1536.00;;;;;;5095213;28;20051;-68
2021/09/11 03:56:51;;;;;;;98.07;37.33;;;435.80;1536.00;;;;;;5094571;28;20032;-68
2021/09/11 03:59:16;;;;;;;73.47;31.15;;;435.80;1561.60;;;;;;5095063;28;20461;-68
2021/09/11 04:01:42;;;;;;;50.03;23.38;;;435.80;1536.00;;;;;;5095344;28;20063;-68
2021/09/11 04:04:08;;;;;;;60.38;26.35;;;435.70;1536.00;;;;;;5095115;28;20012;-68
2021/09/11 04:06:33;;;;;;;70.72;30.55;;;435.70;1561.60;;;;;;5094873;28;20069;-68
2021/09/11 04:08:59;;;;;;;62.13;25.52;;;435.70;1561.60;;;;;;5095167;28;20095;-68
2021/09/11 04:11:25;;;;;;;49.03;23.95;;;435.60;1536.00;;;;;;5094418;28;20054;-68
2021/09/11 04:13:51;;;;;;;60.78;25.85;;;435.60;1561.60;;;;;;5094139;28;20024;-68
2021/09/11 04:16:16;;;;;;;77.32;32.72;;;435.60;1536.00;;;;;;5094695;28;20101;-68
2021/09/11 04:18:42;;;;;;;113.80;44.78;;;435.50;1536.00;;;;;;5094634;28;20048;-68
2021/09/11 04:21:09;;;;;;;172.27;64.32;;;435.60;1561.60;;;;;;5094587;28;20028;-68
2021/09/11 04:23:34;;;;;;;156.45;58.58;;;435.60;1536.00;;;;;;5094543;28;20024;-68
2021/09/11 04:26:00;;;;;;;101.82;39.47;;;435.60;1561.60;;;;;;5094573;28;20024;-68
2021/09/11 04:28:26;;;;;;;107.10;38.17;;;435.60;1561.60;;;;;;5094639;28;20028;-69
2021/09/11 04:30:51;;;;;;;96.60;36.15;;;435.60;1561.60;;;;;;5094066;28;20032;-68
2021/09/11 04:33:17;;;;;;;120.45;41.75;;;435.60;1561.60;;;;;;5094565;28;20081;-68
2021/09/11 04:35:43;;;;;;;155.70;52.63;;;435.60;1561.60;;;;;;5094073;28;20408;-68
2021/09/11 04:38:09;;;;;;;181.25;58.78;;;435.50;1561.60;;;;;;5094839;28;20023;-68
2021/09/11 04:40:34;;;;;;;192.23;59.03;;;435.50;1561.60;;;;;;5092355;28;20473;-68
2021/09/11 04:43:00;;;;;;;156.48;52.25;;;435.50;1561.60;;;;;;5094089;28;20039;-68
2021/09/11 04:45:26;;;;;;;97.05;35.35;;;435.50;1561.60;;;;;;5094276;28;20028;-68
2021/09/11 04:47:52;;;;;;;64.28;24.35;;;435.50;1561.60;;;;;;5094397;28;20108;-68
2021/09/11 04:50:18;;;;;;;59.83;21.80;;;435.50;1561.60;;;;;;5093863;28;20016;-68
2021/09/11 04:52:44;;;;;;;58.05;19.95;;;435.50;1561.60;;;;;;5093917;28;20097;-68
2021/09/11 04:55:10;;;;;;;50.85;19.17;;;435.50;1561.60;;;;;;5094107;28;20020;-69
2021/09/11 04:57:36;;;;;;;95.80;32.85;;;435.50;1561.60;;;;;;5092856;28;20024;-68
2021/09/11 05:00:05;;;;;;;82.80;30.02;;;435.50;1587.20;;;;;;5093923;28;20031;-68
2021/09/11 05:02:31;;;;;;;56.67;20.60;;;435.40;1561.60;;;;;;5093880;28;20060;-68
2021/09/11 05:04:56;;;;;;;42.42;15.38;;;435.60;1587.20;;;;;;5093826;28;20067;-68
2021/09/11 05:07:22;;;;;;;33.28;12.93;;;435.60;1561.60;;;;;;5093988;28;20081;-68
2021/09/11 05:09:48;;;;;;;27.35;10.82;;;435.60;1561.60;;;;;;5093679;28;20516;-68
2021/09/11 05:12:14;;;;;;;19.95;9.70;;;435.60;1587.20;;;;;;5093848;28;20036;-68
2021/09/11 05:14:39;;;;;;;21.95;9.73;;;435.60;1561.60;;;;;;5093793;28;20097;-68
2021/09/11 05:17:05;;;;;;;22.45;8.95;;;435.70;1561.60;;;;;;5094008;28;20032;-68
2021/09/11 05:19:31;;;;;;;27.40;9.50;;;435.70;1561.60;;;;;;5093861;28;20024;-68
2021/09/11 05:21:56;;;;;;;23.38;8.77;;;435.70;1561.60;;;;;;5093827;28;20462;-68
2021/09/11 05:24:22;;;;;;;14.20;8.48;;;435.80;1561.60;;;;;;5093840;28;20024;-68
2021/09/11 05:26:48;;;;;;;19.15;8.35;;;435.80;1561.60;;;;;;5092413;28;20032;-68
2021/09/11 05:29:14;;;;;;;16.83;8.52;;;435.80;1561.60;;;;;;5093469;28;20032;-68
2021/09/11 05:31:39;;;;;;;20.58;9.23;;;435.80;1561.60;;;;;;5093563;28;20032;-68
2021/09/11 05:34:05;;;;;;;26.60;11.02;;;435.90;1561.60;;;;;;5092249;28;20032;-69
2021/09/11 05:36:34;;;;;;;25.90;11.32;;;435.90;1561.60;;;;;;5092226;28;20026;-68
2021/09/11 05:39:00;;;;;;;21.05;9.80;;;435.90;1561.60;;;;;;5093594;28;20397;-68
2021/09/11 05:41:26;;;;;;;28.15;11.95;;;435.90;1561.60;;;;;;5093550;28;20031;-68
2021/09/11 05:43:52;;;;;;;27.42;11.00;;;436.00;1561.60;;;;;;5093173;28;20066;-68
2021/09/11 05:46:18;;;;;;;24.83;10.95;;;436.00;1561.60;;;;;;5093665;28;20031;-68
2021/09/11 05:48:44;;;;;;;23.02;10.50;;;436.00;1561.60;;;;;;5092076;28;20485;-68
2021/09/11 05:51:09;;;;;;;24.25;11.10;;;460.80;1587.20;;;;;;5093523;28;20073;-68
2021/09/11 05:53:35;;;;;;;19.38;9.05;;;460.80;1587.20;;;;;;5093413;28;20537;-68
2021/09/11 05:56:01;;;;;;;18.75;8.60;;;460.80;1587.20;;;;;;5092290;28;20029;-68
2021/09/11 05:58:27;;;;;;;22.08;9.55;;;460.80;1587.20;;;;;;5093192;28;20082;-68
2021/09/11 06:00:53;;;;;;;16.75;7.78;;;460.90;1587.20;;;;;;5093550;28;20028;-68
2021/09/11 06:03:18;;;;;;;25.83;8.75;;;460.90;1561.60;;;;;;5093293;28;20099;-69
2021/09/11 06:05:44;;;;;;;19.08;9.05;;;460.90;1587.20;;;;;;5093547;28;20102;-69
2021/09/11 06:08:10;;;;;;;20.70;9.70;;;460.90;1587.20;;;;;;5093699;28;20024;-69
2021/09/11 06:10:35;;;;;;;21.00;9.27;;;460.90;1587.20;;;;;;5096069;28;20133;-69
2021/09/11 06:13:01;;;;;;;17.10;8.30;;;460.90;1587.20;;;;;;5097504;28;20113;-69
2021/09/11 06:15:28;;;;;;;22.67;8.63;;;461.00;1612.80;;;;;;5097175;28;20036;-69
2021/09/11 06:17:53;;;;;;;18.98;8.40;;;461.10;1587.20;;;;;;5097180;28;20023;-69
2021/09/11 06:20:19;;;;;;;15.73;8.35;;;461.10;1587.20;;;;;;5096906;28;20107;-69
2021/09/11 06:22:46;;;;;;;22.52;8.77;;;461.10;1587.20;;;;;;5097194;28;20028;-69
2021/09/11 06:25:13;;;;;;;15.57;8.30;;;461.20;1612.80;;;;;;5096780;28;20538;-69
2021/09/11 06:27:40;;;;;;;16.25;8.40;;;461.20;1612.80;;;;;;5096822;28;20028;-69
2021/09/11 06:30:07;;;;;;;19.73;8.65;;;461.20;1587.20;;;;;;5096883;28;20062;-69
2021/09/11 06:32:33;;;;;;;22.50;8.30;;;461.30;1587.20;;;;;;5096309;28;20448;-69
2021/09/11 06:34:59;;;;;;;18.92;8.35;;;461.40;1612.80;;;;;;5096788;28;20028;-69
2021/09/11 06:37:24;;;;;;;18.92;8.88;;;461.40;1587.20;;;;;;5095274;28;20532;-69
2021/09/11 06:39:50;;;;;;;20.17;8.50;;;461.50;1587.20;;;;;;5096197;28;20378;-69
2021/09/11 06:42:19;;;;;;;20.13;8.18;;;461.50;1587.20;;;;;;5112368;28;20032;-69
2021/09/11 06:44:45;;;;;;;17.65;8.15;;;461.60;1561.60;;;;;;5096738;28;20024;-69
2021/09/11 06:47:10;;;;;;;26.45;9.18;;;461.60;1561.60;;;;;;5096749;28;20369;-69
2021/09/11 06:49:37;;;;;;;24.30;9.40;;;461.70;1561.60;;;;;;5095906;28;20020;-69
2021/09/11 06:52:03;;;;;;;19.80;8.18;;;486.40;1561.60;;;;;;5096393;28;20042;-69
2021/09/11 06:54:29;;;;;;;15.35;8.75;;;486.50;1561.60;;;;;;5096548;28;20056;-69
2021/09/11 06:56:55;;;;;;;18.67;7.95;;;486.50;1561.60;;;;;;5096565;28;20113;-69
2021/09/11 06:59:20;;;;;;;17.98;8.77;;;486.60;1561.60;;;;;;5096476;28;20020;-69
2021/09/11 07:01:46;;;;;;;15.40;7.80;;;486.70;1536.00;;;;;;5095625;28;20028;-69
2021/09/11 07:04:12;;;;;;;19.17;7.90;;;486.80;1536.00;;;;;;5096193;28;20024;-68
2021/09/11 07:06:37;;;;;;;18.63;8.45;;;486.90;1536.00;;;;;;5095671;28;20024;-68
2021/09/11 07:09:03;;;;;;;25.42;8.95;;;487.00;1536.00;;;;;;5092883;28;20561;-72
2021/09/11 07:11:29;;;;;;;16.50;7.50;;;487.10;1536.00;;;;;;5094607;28;20127;-68
2021/09/11 07:13:55;;;;;;;25.40;7.10;;;487.10;1510.40;;;;;;5093145;28;20028;-69
2021/09/11 07:16:20;;;;;;;22.23;7.22;;;487.30;1510.40;;;;;;5094637;28;20027;-68
2021/09/11 07:18:46;;;;;;;17.77;7.68;;;512.00;1484.80;;;;;;5094731;28;20028;-69
2021/09/11 07:21:12;;;;;;;17.65;6.72;;;512.20;1459.20;;;;;;5094056;28;20028;-68
2021/09/11 07:23:37;;;;;;;27.48;7.50;;;512.40;1459.20;;;;;;5094667;28;20021;-68
2021/09/11 07:26:03;;;;;;;369.75;300.63;;;512.60;1433.60;;;;;;5091448;28;20385;-68
2021/09/11 07:28:29;;;;;;;372.98;314.92;;;512.90;1433.60;;;;;;5091860;28;20031;-69
2021/09/11 07:30:55;;;;;;;227.10;188.52;;;537.70;1433.60;;;;;;5093601;28;20438;-68
2021/09/11 07:33:21;;;;;;;74.75;56.72;;;537.90;1408.00;;;;;;5098461;28;20024;-69
2021/09/11 07:35:46;;;;;;;56.55;44.10;;;538.00;1408.00;;;;;;5115611;28;20473;-68
2021/09/11 07:38:14;;;;;;;26.25;10.88;;;538.30;1382.40;;;;;;5115023;28;20019;-68
2021/09/11 07:40:43;;;;;;;12.13;7.78;;;538.50;1280.00;;;;;;5093989;28;20028;-72
2021/09/11 07:43:10;;;;;;;14.40;7.68;;;563.30;1305.60;;;;;;5094861;28;20116;-72
2021/09/11 07:45:38;;;;;;;18.40;8.10;;;563.50;1305.60;;;;;;5094796;28;20099;-68
2021/09/11 07:48:04;;;;;;;11.50;6.30;;;563.70;1305.60;;;;;;5094299;28;20497;-72
2021/09/11 07:50:31;;;;;;;13.13;5.07;;;563.80;1280.00;;;;;;5094245;28;20027;-72
2021/09/11 07:52:57;;;;;;;17.13;5.30;;;588.80;1203.20;;;;;;5095434;28;20516;-72
2021/09/11 07:55:23;;;;;;;14.18;5.50;;;588.90;1228.80;;;;;;5094246;28;20048;-73
2021/09/11 07:57:49;;;;;;;12.45;5.50;;;589.00;1203.20;;;;;;5094361;28;20024;-73
2021/09/11 08:00:17;;;;;;;15.05;5.82;;;589.20;1203.20;;;;;;5093815;28;20118;-73
2021/09/11 08:02:43;;;;;;;14.65;5.90;;;589.30;1203.20;;;;;;5094067;28;20102;-72
2021/09/11 08:05:09;;;;;;;16.80;5.93;;;589.60;1152.00;;;;;;5094230;28;20107;-73
2021/09/11 08:07:35;;;;;;;15.07;5.35;;;589.70;1152.00;;;;;;5093887;28;20020;-73
2021/09/11 08:10:00;;;;;;;8.77;5.20;;;614.40;1100.80;;;;;;5093408;28;20131;-72
2021/09/11 08:12:26;;;;;;;13.00;4.90;;;614.60;1075.20;;;;;;5092448;28;20489;-72
2021/09/11 08:14:52;;;;;;;15.48;5.05;;;614.70;1100.80;;;;;;5093525;28;20435;-74
2021/09/11 08:17:18;;;;;;;13.10;5.75;;;614.80;1126.40;;;;;;5093465;28;20024;-73
2021/09/11 08:19:44;;;;;;;11.88;5.00;;;614.90;1177.60;;;;;;5093662;28;20031;-73
2021/09/11 08:22:10;;;;;;;13.25;5.55;;;614.90;1126.40;;;;;;5093956;28;20153;-73
2021/09/11 08:24:35;;;;;;;13.32;5.93;;;615.10;1126.40;;;;;;5093592;28;20032;-72
2021/09/11 08:27:01;;;;;;;19.13;5.72;;;615.20;1126.40;;;;;;5093643;28;20432;-73
2021/09/11 08:29:27;;;;;;;15.13;5.45;;;615.30;1126.40;;;;;;5092194;28;20028;-73
2021/09/11 08:31:53;;;;;;;18.67;5.63;;;615.30;1152.00;;;;;;5093658;28;20495;-73
2021/09/11 08:34:19;;;;;;;13.32;5.68;;;640.10;1126.40;;;;;;5094301;28;20078;-73
2021/09/11 08:36:44;;;;;;;22.08;6.00;;;640.10;1126.40;;;;;;5094264;28;20024;-73
2021/09/11 08:39:10;;;;;;;17.95;5.95;;;640.20;1126.40;;;;;;5094329;28;20024;-73
2021/09/11 08:41:37;;;;;;;26.98;5.88;;;640.20;1126.40;;;;;;5094428;28;20024;-73
2021/09/11 08:44:03;;;;;;;18.70;5.82;;;640.30;1126.40;;;;;;5094074;28;20047;-72
2021/09/11 08:46:30;;;;;;;15.13;4.80;;;640.30;1100.80;;;;;;5094248;28;20031;-72
2021/09/11 08:48:56;;;;;;;12.65;4.85;;;640.50;1075.20;;;;;;5094148;28;20020;-72
2021/09/11 08:51:23;;;;;;;17.13;5.45;;;640.60;1075.20;;;;;;5090875;28;20391;-72
2021/09/11 08:53:49;;;;;;;14.55;5.40;;;640.70;1075.20;;;;;;5093773;28;20392;-73
2021/09/11 08:56:15;;;;;;;13.35;4.65;;;640.80;1075.20;;;;;;5094150;28;20403;-73
2021/09/11 08:58:44;;;;;;;19.88;6.35;;;640.80;1049.60;;;;;;5094048;28;20473;-73
2021/09/11 09:01:09;;;;;;;10.65;4.32;;;665.60;1075.20;;;;;;5094533;28;20031;-73
2021/09/11 09:03:41;;;;;;;11.98;4.75;;;665.60;1075.20;;;;;;5092318;28;20036;-73
2021/09/11 09:06:28;;;;;;;13.30;4.40;;;665.70;1049.60;;;;;;5093935;28;20099;-73
2021/09/11 09:09:03;;;;;;;16.85;4.28;;;665.80;1024.00;;;;;;5094119;28;20383;-73
2021/09/11 09:11:31;;;;;;;14.13;4.97;;;665.90;1024.00;;;;;;5093427;28;20481;-73
2021/09/11 09:14:08;;;;;;;12.32;4.20;;;666.00;1024.00;;;;;;5093356;28;20054;-73
2021/09/11 09:16:44;;;;;;;13.38;4.28;;;666.10;1024.00;;;;;;5093882;28;20111;-72
2021/09/11 09:19:23;;;;;;;10.25;4.07;;;666.20;998.40;;;;;;5093293;28;20032;-73
2021/09/11 09:21:54;;;;;;;7.50;4.28;;;666.40;998.40;;;;;;5090756;28;20012;-73
2021/09/11 09:24:36;;;;;;;14.75;4.35;;;666.40;972.80;;;;;;5090223;28;20029;-72
2021/09/11 09:27:07;;;;;;;17.05;4.30;;;666.40;972.80;;;;;;5094157;28;20080;-74
2021/09/11 09:29:38;;;;;;;11.77;4.07;;;666.50;972.80;;;;;;5091828;28;20043;-72
2021/09/11 09:32:04;;;;;;;16.23;5.47;;;691.30;972.80;;;;;;5093794;28;20039;-73
2021/09/11 09:34:35;;;;;;;10.98;4.63;;;691.30;972.80;;;;;;5093079;28;20028;-73
2021/09/11 09:37:03;;;;;;;12.23;4.32;;;691.40;972.80;;;;;;5093458;28;20048;-73
2021/09/11 09:39:30;;;;;;;9.50;4.43;;;691.50;972.80;;;;;;5093941;28;20099;-73
2021/09/11 09:42:03;;;;;;;12.05;4.15;;;691.50;947.20;;;;;;5092740;28;20034;-72
2021/09/11 09:44:38;;;;;;;9.80;4.53;;;691.60;947.20;;;;;;5096760;28;20025;-73
2021/09/11 09:47:04;;;;;;;15.90;4.28;;;691.70;947.20;;;;;;5097755;28;20118;-74
2021/09/11 09:49:31;;;;;;;15.80;3.83;;;691.70;921.60;;;;;;5097123;28;20110;-73
2021/09/11 09:51:58;;;;;;;11.52;4.20;;;691.70;921.60;;;;;;5097376;28;20553;-72
2021/09/11 09:54:25;;;;;;;10.43;3.88;;;691.80;921.60;;;;;;5097225;28;20394;-74
2021/09/11 09:56:51;;;;;;;14.95;3.85;;;691.80;921.60;;;;;;5097281;28;20027;-72
2021/09/11 09:59:17;;;;;;;10.35;3.83;;;691.80;896.00;;;;;;5097414;28;20016;-72
2021/09/11 10:01:44;;;;;;;9.65;3.85;;;691.90;896.00;;;;;;5097480;28;20028;-73
2021/09/11 10:04:15;;;;;;;86.65;9.10;;;692.10;870.40;;;;;;5097278;28;20570;-73
2021/09/11 10:06:43;;;;;;;33.08;7.63;;;716.80;921.60;;;;;;5097217;28;20020;-73
2021/09/11 10:09:10;;;;;;;12.32;4.88;;;716.80;947.20;;;;;;5097372;28;20077;-73
2021/09/11 10:11:42;;;;;;;8.25;3.88;;;717.00;896.00;;;;;;5096829;28;20040;-73
2021/09/11 10:14:13;;;;;;;13.10;3.88;;;717.00;844.80;;;;;;5096304;28;20020;-73
2021/09/11 10:16:41;;;;;;;8.05;3.95;;;717.00;844.80;;;;;;5094468;28;20427;-73
2021/09/11 10:19:21;;;;;;;10.40;3.90;;;717.10;844.80;;;;;;5093652;28;20470;-73
2021/09/11 10:21:49;;;;;;;5.85;3.10;;;717.10;844.80;;;;;;5093859;28;20020;-73
2021/09/11 10:24:23;;;;;;;7.10;3.00;;;717.10;844.80;;;;;;5096697;28;20044;-74
2021/09/11 10:26:59;;;;;;;9.07;3.35;;;717.20;819.20;;;;;;5095043;28;20027;-72
2021/09/11 10:29:33;;;;;;;7.82;3.83;;;717.30;793.60;;;;;;5096147;28;20016;-72
2021/09/11 10:32:01;;;;;;;8.07;3.33;;;717.40;793.60;;;;;;5094989;28;20077;-72
2021/09/11 10:35:00;;;;;;;11.75;3.60;;;717.40;793.60;;;;;;5092474;28;20073;-73
2021/09/11 10:37:31;;;;;;;6.93;2.78;;;717.50;768.00;;;;;;5096273;28;20036;-72
2021/09/11 10:40:29;;;;;;;7.97;3.17;;;717.60;768.00;;;;;;5096603;28;20050;-72
2021/09/11 10:43:28;;;;;;;8.93;3.15;;;717.70;793.60;;;;;;5014506;28;20196;-72
2021/09/11 10:45:54;;;;;;;8.60;3.45;;;717.70;768.00;;;;;;5014588;28;20116;-72
2021/09/11 10:48:44;;;;;;;21.15;3.20;;;717.70;768.00;;;;;;5014658;28;20125;-73
2021/09/11 10:51:13;;;;;;;9.05;3.30;;;717.70;768.00;;;;;;5014177;28;20476;-73
2021/09/11 10:53:54;;;;;;;6.28;2.70;;;742.40;793.60;;;;;;5014573;28;20034;-71
2021/09/11 10:56:28;;;;;;;7.80;3.22;;;742.50;742.40;;;;;;5013532;28;20029;-72
2021/09/11 10:59:18;;;;;;;11.52;2.78;;;742.50;768.00;;;;;;4998188;28;20213;-73
2021/09/11 11:02:05;;;;;;;5.05;2.95;;;742.60;742.40;;;;;;5014237;28;20064;-72
2021/09/11 11:04:40;;;;;;;7.85;2.80;;;742.60;768.00;;;;;;5014234;28;20026;-74
2021/09/11 11:07:11;;;;;;;7.10;2.83;;;742.60;768.00;;;;;;5013478;28;20133;-70
2021/09/11 11:09:41;;;;;;;6.45;2.80;;;742.60;742.40;;;;;;5013281;28;20034;-73
2021/09/11 11:12:10;;;;;;;6.32;2.50;;;742.60;742.40;;;;;;5013782;28;20088;-73
2021/09/11 11:14:47;;;;;;;10.43;3.00;;;742.60;768.00;;;;;;5013962;28;20025;-73
2021/09/11 11:17:18;;;;;;;4.97;3.00;;;742.70;768.00;;;;;;4997088;28;20037;-73
2021/09/11 11:19:48;;;;;;;8.20;2.80;;;742.70;768.00;;;;;;5056838;28;20124;-71
2021/09/11 11:22:36;;;;;;;6.43;2.83;;;742.70;768.00;;;;;;5075562;28;20028;-74
2021/09/11 11:25:05;;;;;;;9.95;2.42;;;742.70;768.00;;;;;;5090700;28;20058;-71
2021/09/11 11:27:31;;;;;;;7.55;2.20;;;742.70;768.00;;;;;;5092750;28;20428;-71
2021/09/11 11:29:59;;;;;;;5.82;3.00;;;742.70;768.00;;;;;;5095404;28;20031;-76
2021/09/11 11:32:32;;;;;;;6.82;2.75;;;742.70;768.00;;;;;;5094050;28;20161;-73
2021/09/11 11:34:59;;;;;;;19.70;3.20;;;742.90;742.40;;;;;;5095735;28;20035;-75
2021/09/11 11:37:27;;;;;;;9.27;2.90;;;742.90;742.40;;;;;;5093952;28;20032;-73
2021/09/11 11:39:53;;;;;;;10.00;2.92;;;742.90;768.00;;;;;;5095207;28;20032;-73
2021/09/11 11:42:22;;;;;;;5.35;2.85;;;742.90;793.60;;;;;;5095139;28;20028;-73
2021/09/11 11:44:52;;;;;;;6.97;2.72;;;742.90;768.00;;;;;;5095428;28;20027;-73
2021/09/11 11:47:26;;;;;;;11.00;3.92;;;742.90;768.00;;;;;;5095488;28;20429;-72
2021/09/11 11:49:52;;;;;;;9.93;3.05;;;742.90;742.40;;;;;;5095187;28;20430;-72
2021/09/11 11:52:19;;;;;;;4.50;2.50;;;742.80;742.40;;;;;;5094222;28;20448;-72
2021/09/11 11:54:47;;;;;;;10.20;2.80;;;742.90;768.00;;;;;;5094317;28;20016;-71
2021/09/11 11:57:31;;;;;;;7.05;2.40;;;742.90;742.40;;;;;;5091961;28;20104;-71
2021/09/11 12:00:16;;;;;;;9.85;4.32;;;742.90;742.40;;;;;;5092508;28;20020;-71
2021/09/11 12:02:47;;;;;;;6.45;2.55;;;742.90;768.00;;;;;;5093426;28;20023;-74
2021/09/11 12:05:27;;;;;;;11.82;3.03;;;742.80;742.40;;;;;;5091018;28;20081;-74
2021/09/11 12:08:03;;;;;;;7.80;3.00;;;742.70;716.80;;;;;;5089938;28;20024;-74
2021/09/11 12:10:32;;;;;;;7.53;2.80;;;742.80;716.80;;;;;;5093157;28;20115;-73